Time;durP1;ratioP1;P1;durP2;ratioP2;P2;SDS_P1;SDS_P2;PMS_P1;PMS_P2;Temp;Humidity;BMP_temperature;BMP_pressure;BME280_temperature;BME280_humidity;BME280_pressure;Samples;Min_cycle;Max_cycle;Signal;HPM_P1;HPM_P2
2021/08/25 09:15:56;;;;;;;7.63;4.03;;;21.30;39.60;;;;;;5019611;28;20310;-83
2021/08/25 09:18:23;;;;;;;4.53;4.10;;;23.50;31.60;;;;;;5017999;28;20227;-82
2021/08/25 09:20:51;;;;;;;4.40;4.00;;;23.20;30.80;;;;;;5019923;28;20266;-82
2021/08/25 09:23:19;;;;;;;5.18;4.35;;;24.60;27.00;;;;;;5029457;28;20265;-84
2021/08/25 09:25:48;;;;;;;5.53;4.47;;;26.00;23.90;;;;;;5026745;28;20259;-83
2021/08/25 09:28:16;;;;;;;4.90;4.40;;;26.30;22.80;;;;;;5017256;28;20314;-85
2021/08/25 09:30:51;;;;;;;4.90;4.50;;;26.50;22.10;;;;;;5012649;28;20199;-85
2021/08/25 09:33:19;;;;;;;5.18;4.45;;;27.00;22.70;;;;;;5002327;28;20701;-85
2021/08/25 09:35:47;;;;;;;6.32;5.00;;;28.30;19.00;;;;;;5005450;28;20299;-88
2021/08/25 09:38:18;;;;;;;6.65;4.90;;;27.90;18.40;;;;;;5007007;28;20230;-85
2021/08/25 09:40:46;;;;;;;5.40;4.75;;;28.00;17.70;;;;;;5008086;28;20195;-85
2021/08/25 09:43:13;;;;;;;5.35;4.85;;;27.90;18.10;;;;;;5036391;28;20244;-84
2021/08/25 09:46:04;;;;;;;5.05;4.57;;;28.00;17.90;;;;;;5004917;28;20199;-84
2021/08/25 09:48:36;;;;;;;7.40;4.93;;;28.40;17.30;;;;;;5019730;28;20234;-84
2021/08/25 09:51:03;;;;;;;5.80;5.25;;;28.90;16.80;;;;;;5022318;28;20191;-84
2021/08/25 09:53:30;;;;;;;5.88;5.38;;;29.20;17.10;;;;;;5021201;28;20289;-84
2021/08/25 09:55:57;;;;;;;6.18;5.03;;;29.00;16.10;;;;;;5008359;28;20199;-83
2021/08/25 09:58:24;;;;;;;7.22;4.90;;;27.70;18.70;;;;;;5008482;28;20707;-86
2021/08/25 10:00:53;;;;;;;5.75;5.10;;;26.90;20.60;;;;;;5008171;28;20297;-85
2021/08/25 10:03:21;;;;;;;5.22;4.72;;;26.80;18.80;;;;;;5011977;28;20294;-85
2021/08/25 10:05:49;;;;;;;5.18;4.68;;;27.80;17.70;;;;;;5010204;28;20556;-84
2021/08/25 10:08:17;;;;;;;5.60;5.10;;;28.70;17.30;;;;;;5017757;28;20313;-85
2021/08/25 10:10:45;;;;;;;7.75;4.82;;;29.10;16.20;;;;;;5010834;28;20230;-83
2021/08/25 10:13:12;;;;;;;6.65;5.55;;;29.30;16.30;;;;;;5003373;28;20234;-83
2021/08/25 10:15:47;;;;;;;5.82;5.28;;;29.00;16.20;;;;;;5022093;28;20203;-85
2021/08/25 10:18:25;;;;;;;5.57;5.07;;;29.50;16.40;;;;;;5013607;28;20238;-83
2021/08/25 10:20:54;;;;;;;7.35;5.22;;;29.40;16.30;;;;;;5006317;28;20207;-84
2021/08/25 10:23:46;;;;;;;5.63;5.13;;;29.00;16.20;;;;;;5000812;28;20265;-85
2021/08/25 10:26:13;;;;;;;5.93;5.35;;;28.90;16.10;;;;;;4998711;28;20200;-87
2021/08/25 10:29:07;;;;;;;5.63;5.13;;;27.50;15.40;;;;;;5008191;28;20247;-85
2021/08/25 10:32:14;;;;;;;7.80;4.47;;;25.90;19.70;;;;;;5006231;28;20195;-85
2021/08/25 10:34:43;;;;;;;6.00;5.15;;;25.60;19.80;;;;;;5001317;28;20302;-87
2021/08/25 10:37:30;;;;;;;6.43;4.95;;;25.80;22.40;;;;;;4998659;28;20239;-86
2021/08/25 10:39:59;;;;;;;5.43;4.65;;;26.90;20.90;;;;;;5014476;28;20226;-85
2021/08/25 10:42:50;;;;;;;6.30;4.53;;;26.40;20.60;;;;;;5013892;28;20250;-85
2021/08/25 10:45:37;;;;;;;6.70;5.10;;;27.80;15.70;;;;;;5013710;28;20676;-85
2021/08/25 10:48:08;;;;;;;5.80;4.72;;;27.50;16.40;;;;;;5012635;28;20764;-85
2021/08/25 10:50:52;;;;;;;10.70;5.28;;;28.00;17.30;;;;;;5006610;28;20560;-85
2021/08/25 10:53:39;;;;;;;5.45;4.82;;;28.10;15.70;;;;;;4999992;28;20266;-85
2021/08/25 10:56:09;;;;;;;5.50;5.00;;;28.20;19.80;;;;;;5001694;28;20207;-86
2021/08/25 10:58:43;;;;;;;4.93;4.47;;;28.60;15.90;;;;;;5003756;28;20380;-85
2021/08/25 11:01:29;;;;;;;6.97;5.40;;;29.20;17.50;;;;;;5007997;28;20565;-86
2021/08/25 11:03:56;;;;;;;5.05;4.63;;;28.40;17.00;;;;;;5008477;28;20225;-85
2021/08/25 11:06:34;;;;;;;5.22;4.65;;;28.10;17.00;;;;;;4999353;28;20221;-86
2021/08/25 11:09:34;;;;;;;4.80;4.30;;;27.50;16.70;;;;;;5018274;28;20260;-84
2021/08/25 11:12:04;;;;;;;5.43;4.70;;;26.80;19.20;;;;;;5017872;28;20550;-83
2021/08/25 11:14:34;;;;;;;4.97;4.32;;;25.80;18.90;;;;;;5018372;28;20211;-83
2021/08/25 11:17:10;;;;;;;7.07;4.70;;;24.80;22.00;;;;;;5017016;28;20187;-84
2021/08/25 11:19:41;;;;;;;5.63;4.47;;;24.30;22.50;;;;;;5018250;28;20678;-81
2021/08/25 11:22:10;;;;;;;6.07;4.13;;;23.80;26.20;;;;;;5016316;28;20599;-83
2021/08/25 11:24:41;;;;;;;5.00;4.50;;;23.40;27.40;;;;;;5018734;28;20643;-82
